Tahawus, New York
Current Conditions -  °F | °C
As of 10:51 AM on Thursday 23 Oct 2014 (Local Time) from KSLK Reporting Station
Overcast Overcast  
Wind Chill: 33°   Ceiling: 800
Heat Index: 40°   Visibility: 8mi
Dew Point: 36°   Wind: 12mph
Humidity: 86%   Direction: 20°NNE
Pressure: 29.96"   Gusts: NA
Location:  44.0508°N, 74.0396°W
Report Text: KSLK 231451Z AUTO 02010KT 8SM OVC008 04/02 A2996 RMK AO2 SLP155 T00440022 56007
Loading
Personal Weather Stations






























Interactive Weather Map
Tropical Storm Tracking
New forecast layout! Learn more

10-Day Weather Forecast

Advertisements
Track Severe Weather on mobile